Tangent, OR (97389)

2:10 PM PDT on March 27, 2017 (GMT -0700)
Green Valley Rd | | Change Station

Elev 259 ft 44.48 °N, 123.17 °W | Updated 9 minutes ago

Mostly Cloudy
Mostly Cloudy
53.2 °F
Feels Like 53.2 °F
N
7.8
Wind Variable Wind from SSW

Today
High -- | Low -- °F
--% Chance of Precip.
Yesterday
High -- | Low -- °F
Precip. -- in
Pressure 30.26 in
Visibility 10.0 miles
Clouds Few 3600 ft
Scattered Clouds 4200 ft
Mostly Cloudy 4900 ft
Dew Point 44 °F
Humidity 71%
Rainfall 0.15 in
Snow Depth Not available.
7:01 AM 7:34 PM
Waning Crescent, 0% visible
METAR KCVO 272055Z 25004KT 10SM FEW036 SCT042 BKN049 11/06 A3026 RMK AO1 52027
Pressure 30.26 in
Visibility 10.0 miles
Clouds Few 3600 ft
Scattered Clouds 4200 ft
Mostly Cloudy 4900 ft
Dew Point 44 °F
Humidity 71%
Rainfall 0.15 in
Snow Depth Not available.
7:01 AM 7:34 PM
Waning Crescent, 0% visible
METAR KCVO 272055Z 25004KT 10SM FEW036 SCT042 BKN049 11/06 A3026 RMK AO1 52027

Get Severe Weather Alerts

Thanks for signing up!

Be on the lookout for a verification email in your inbox.

You'll start receiving the daily forecast at 8 AM.

×

10-Day Weather Forecast

Almanac

Astronomy

Mar. 27, 2017 Rise Set
Actual Time
Civil Twilight
Nautical Twilight
Astronomical Twilight
Moon
Length of Visible Light
Length of Day
Tomorrow will be .
, % of the Moon is Illuminated

Today's Extremes

State Highs State Lows

Community

WunderPhotos

Upload Photos

1,962,540 photos uploaded!

WunderBlog® & News

Nearby

Air Quality

  Air Quality AQ Index Pollutant
Not available.

Snow Depth

Station Depth Elevation

Earthquake Activity

City Distance Mag. Time & Date
Minimum magnitude displayed is 2.5.

Earthquake Activity

City Distance Mag. Time & Date
Minimum magnitude displayed is 2.5.

Coastal Water Temperatures

Place Temperature

Stations

Nearby Weather Stations

Station Location Temp. Windchill Dew Point Humidity Wind Precip. Elev Updated Type
                   

Watches & Warnings

There are currently no watches in effect.